Time;durP1;ratioP1;P1;durP2;ratioP2;P2;SDS_P1;SDS_P2;PMS_P1;PMS_P2;Temp;Humidity;BMP_temperature;BMP_pressure;BME280_temperature;BME280_humidity;BME280_pressure;Samples;Min_cycle;Max_cycle;Signal;HPM_P1;HPM_P2
2022/09/22 00:01:49;;;;;;;0.17;0.17;;;22.10;58.80;;;;;;5006236;28;20126;-19
2022/09/22 00:04:14;;;;;;;0.77;0.15;;;22.10;58.80;;;;;;5005526;28;20145;-19
2022/09/22 00:06:42;;;;;;;0.13;0.10;;;22.10;59.40;;;;;;5005336;28;20168;-18
2022/09/22 00:09:09;;;;;;;0.10;0.10;;;22.10;58.80;;;;;;5004027;28;20145;-19
2022/09/22 00:11:41;;;;;;;0.30;0.10;;;22.10;58.90;;;;;;5006855;28;20038;-19
2022/09/22 00:14:14;;;;;;;0.10;0.10;;;22.10;58.80;;;;;;5007941;28;20042;-18
2022/09/22 00:16:41;;;;;;;0.32;0.20;;;22.10;58.80;;;;;;5007363;28;20041;-28
2022/09/22 00:19:18;;;;;;;0.20;0.20;;;22.10;58.80;;;;;;5001427;28;20129;-18
2022/09/22 00:21:43;;;;;;;0.52;0.10;;;22.10;58.80;;;;;;5002560;28;20570;-19
2022/09/22 00:24:09;;;;;;;0.10;0.10;;;22.10;59.40;;;;;;5003095;28;20042;-18
2022/09/22 00:26:35;;;;;;;0.40;0.20;;;22.10;59.00;;;;;;5004123;28;20470;-18
2022/09/22 00:29:01;;;;;;;0.20;0.20;;;22.10;58.80;;;;;;5004345;28;20038;-19
2022/09/22 00:31:27;;;;;;;0.90;0.22;;;22.10;58.70;;;;;;5006574;28;20046;-19
2022/09/22 00:33:53;;;;;;;0.10;0.10;;;22.10;58.80;;;;;;5001445;28;20042;-24
2022/09/22 00:36:20;;;;;;;0.10;0.10;;;22.10;58.80;;;;;;5003280;28;20129;-19
2022/09/22 00:38:46;;;;;;;0.20;0.10;;;22.10;58.90;;;;;;5004782;28;20084;-19
2022/09/22 00:41:19;;;;;;;0.20;0.20;;;22.10;58.80;;;;;;5005786;28;20599;-19
2022/09/22 00:43:47;;;;;;;0.98;0.30;;;22.00;58.80;;;;;;5006712;28;20094;-19
2022/09/22 00:46:24;;;;;;;0.10;0.10;;;22.00;58.90;;;;;;5005405;28;20053;-21
2022/09/22 00:49:00;;;;;;;0.20;0.20;;;22.00;58.80;;;;;;5017717;28;20038;-20
2022/09/22 00:51:28;;;;;;;0.10;0.10;;;22.10;58.80;;;;;;5003933;28;20210;-20
2022/09/22 00:53:53;;;;;;;0.10;0.10;;;22.10;58.90;;;;;;5026143;28;20040;-19
2022/09/22 00:56:30;;;;;;;0.10;0.10;;;22.00;58.80;;;;;;5005064;28;20136;-19
2022/09/22 00:58:59;;;;;;;0.20;0.20;;;22.00;58.80;;;;;;5005865;28;20057;-46
2022/09/22 01:01:25;;;;;;;1.60;0.40;;;22.10;58.80;;;;;;5029396;28;20054;-45
2022/09/22 01:03:50;;;;;;;0.30;0.10;;;22.00;58.80;;;;;;5000534;28;20077;-46
2022/09/22 01:06:18;;;;;;;0.20;0.10;;;22.00;58.80;;;;;;5004635;28;20034;-45
2022/09/22 01:08:43;;;;;;;0.10;0.10;;;22.00;58.90;;;;;;5001933;28;20439;-46
2022/09/22 01:11:09;;;;;;;0.20;0.17;;;22.00;58.80;;;;;;5034060;28;20518;-46
2022/09/22 01:13:45;;;;;;;0.17;0.10;;;22.00;58.80;;;;;;5003579;28;20036;-46
2022/09/22 01:16:14;;;;;;;0.17;0.17;;;22.00;58.80;;;;;;5004281;28;20618;-46
2022/09/22 01:18:55;;;;;;;0.13;0.10;;;22.00;58.80;;;;;;4999711;28;20037;-46
2022/09/22 01:22:10;;;;;;;0.35;0.10;;;22.00;58.80;;;;;;5000674;28;20125;-47
2022/09/22 01:24:45;;;;;;;0.10;0.10;;;22.00;58.80;;;;;;4964562;28;20042;-46
2022/09/22 01:27:28;;;;;;;0.10;0.10;;;21.90;58.80;;;;;;4948792;28;20059;-46
2022/09/22 01:30:20;;;;;;;0.15;0.15;;;22.00;59.00;;;;;;4966379;28;20596;-46
2022/09/22 01:33:22;;;;;;;0.10;0.10;;;22.00;58.90;;;;;;4947518;28;20627;-45
2022/09/22 01:35:52;;;;;;;0.10;0.10;;;22.00;58.80;;;;;;4948633;28;20524;-46
2022/09/22 01:38:54;;;;;;;0.10;0.10;;;22.00;58.80;;;;;;4976656;28;20047;-47
2022/09/22 01:41:38;;;;;;;0.15;0.15;;;22.00;58.70;;;;;;4950795;28;20092;-46
2022/09/22 01:44:08;;;;;;;0.10;0.10;;;22.00;58.70;;;;;;4947329;28;20046;-46
2022/09/22 01:46:36;;;;;;;0.22;0.10;;;22.00;58.70;;;;;;4964514;28;20564;-45
2022/09/22 01:49:07;;;;;;;0.20;0.20;;;22.00;58.70;;;;;;4963480;28;20038;-45
2022/09/22 01:51:55;;;;;;;0.10;0.10;;;22.00;58.80;;;;;;4944315;28;20334;-46
2022/09/22 01:54:38;;;;;;;0.20;0.20;;;22.00;58.80;;;;;;4944609;28;20583;-46
2022/09/22 01:57:15;;;;;;;0.10;0.10;;;22.00;58.70;;;;;;4947612;28;20046;-46
2022/09/22 01:59:41;;;;;;;0.10;0.10;;;22.00;58.80;;;;;;4947385;28;20516;-45
2022/09/22 02:02:15;;;;;;;0.22;0.10;;;22.00;58.70;;;;;;4994778;28;20045;-46
2022/09/22 02:04:45;;;;;;;0.20;0.20;;;22.00;59.30;;;;;;5018053;28;20053;-46
2022/09/22 02:07:15;;;;;;;0.32;0.13;;;22.00;58.80;;;;;;5018268;28;21032;-45
2022/09/22 02:09:41;;;;;;;1.40;0.10;;;22.00;58.70;;;;;;5017918;28;20042;-46
2022/09/22 02:12:06;;;;;;;0.25;0.25;;;22.00;58.70;;;;;;5003874;28;20523;-46
2022/09/22 02:14:32;;;;;;;0.43;0.20;;;22.00;58.70;;;;;;5018644;28;20093;-46
2022/09/22 02:16:57;;;;;;;0.13;0.13;;;22.00;58.70;;;;;;4990166;28;20034;-46
2022/09/22 02:19:28;;;;;;;0.15;0.15;;;22.00;58.70;;;;;;5014100;28;20529;-46
2022/09/22 02:21:53;;;;;;;0.10;0.10;;;21.90;58.70;;;;;;5001821;28;20034;-45
2022/09/22 02:24:27;;;;;;;0.10;0.10;;;21.90;58.70;;;;;;5017658;28;20049;-46
2022/09/22 02:26:54;;;;;;;0.10;0.10;;;21.90;58.70;;;;;;5004549;28;20041;-46
2022/09/22 02:29:19;;;;;;;0.10;0.10;;;21.90;58.80;;;;;;5020892;28;20117;-46
2022/09/22 02:31:45;;;;;;;0.30;0.30;;;22.00;58.70;;;;;;5020894;28;20109;-46
2022/09/22 02:34:11;;;;;;;0.10;0.10;;;21.90;58.70;;;;;;5001817;28;20129;-46
2022/09/22 02:36:43;;;;;;;0.20;0.10;;;22.00;58.80;;;;;;5017092;28;20408;-46
2022/09/22 02:39:30;;;;;;;0.10;0.10;;;22.00;58.70;;;;;;5013788;28;20050;-45
2022/09/22 02:42:12;;;;;;;0.10;0.10;;;21.90;58.80;;;;;;5006453;28;20026;-46
2022/09/22 02:44:55;;;;;;;0.20;0.13;;;21.90;58.80;;;;;;5003186;28;20101;-45
2022/09/22 02:47:41;;;;;;;0.10;0.10;;;21.90;58.90;;;;;;5002689;28;20095;-46
2022/09/22 02:50:09;;;;;;;0.10;0.10;;;21.90;58.90;;;;;;5005988;28;20041;-45
2022/09/22 02:52:35;;;;;;;0.20;0.20;;;21.90;58.90;;;;;;5014599;28;20096;-46
2022/09/22 02:55:01;;;;;;;2.03;0.20;;;21.90;58.90;;;;;;5003625;28;20391;-48
2022/09/22 02:57:27;;;;;;;0.10;0.10;;;21.90;59.50;;;;;;5002954;28;20505;-45
2022/09/22 02:59:52;;;;;;;0.28;0.28;;;21.90;58.90;;;;;;5004788;28;20081;-45
2022/09/22 03:02:18;;;;;;;0.10;0.10;;;21.90;58.80;;;;;;5004897;28;20050;-46
2022/09/22 03:04:43;;;;;;;0.30;0.20;;;21.90;58.90;;;;;;5003753;28;20503;-46
2022/09/22 03:07:09;;;;;;;0.10;0.10;;;21.90;59.60;;;;;;4997426;28;20066;-46
2022/09/22 03:09:34;;;;;;;0.10;0.10;;;21.90;59.00;;;;;;5001150;28;20108;-46
2022/09/22 03:12:00;;;;;;;0.13;0.10;;;21.90;58.90;;;;;;5002112;28;20089;-46
2022/09/22 03:14:26;;;;;;;0.20;0.10;;;21.90;58.90;;;;;;5001476;28;20041;-45
2022/09/22 03:16:51;;;;;;;0.20;0.10;;;21.90;59.00;;;;;;5006061;28;20045;-46
2022/09/22 03:19:17;;;;;;;0.10;0.10;;;21.90;59.00;;;;;;4999992;28;20559;-46
2022/09/22 03:21:42;;;;;;;0.15;0.10;;;21.90;59.00;;;;;;5000300;28;20060;-46
2022/09/22 03:24:08;;;;;;;0.30;0.30;;;21.90;59.20;;;;;;5003818;28;20102;-45
2022/09/22 03:26:33;;;;;;;0.40;0.13;;;21.90;59.20;;;;;;5003498;28;20041;-45
2022/09/22 03:28:59;;;;;;;0.20;0.20;;;21.90;59.20;;;;;;5003814;28;20049;-46
2022/09/22 03:31:25;;;;;;;0.10;0.10;;;21.90;59.10;;;;;;5002467;28;20026;-46
2022/09/22 03:33:50;;;;;;;0.10;0.05;;;21.90;59.20;;;;;;4999619;28;20038;-45
2022/09/22 03:36:16;;;;;;;0.10;0.10;;;21.80;59.10;;;;;;4999542;28;21056;-46
2022/09/22 03:38:42;;;;;;;0.15;0.15;;;21.90;59.80;;;;;;5001484;28;20061;-46
2022/09/22 03:41:08;;;;;;;0.20;0.20;;;21.80;59.10;;;;;;5003669;28;20146;-45
2022/09/22 03:43:34;;;;;;;0.10;0.10;;;21.80;59.10;;;;;;5000083;28;20074;-45
2022/09/22 03:46:00;;;;;;;0.10;0.10;;;21.90;59.00;;;;;;5003530;28;20562;-45
2022/09/22 03:48:27;;;;;;;0.10;0.10;;;21.80;59.00;;;;;;4999191;28;20038;-44
2022/09/22 03:50:53;;;;;;;0.10;0.10;;;21.80;59.10;;;;;;5002001;28;20042;-45
2022/09/22 03:53:18;;;;;;;0.22;0.20;;;21.80;59.10;;;;;;5004115;28;20038;-45
2022/09/22 03:55:44;;;;;;;0.40;0.20;;;21.80;59.10;;;;;;5003853;28;20038;-45
2022/09/22 03:58:10;;;;;;;0.20;0.20;;;21.80;59.10;;;;;;5000524;28;20161;-45
2022/09/22 04:00:35;;;;;;;0.10;0.10;;;21.80;59.00;;;;;;5017283;28;20057;-45
2022/09/22 04:03:01;;;;;;;0.03;0.03;;;21.80;59.00;;;;;;4999609;28;20109;-45
2022/09/22 04:05:26;;;;;;;0.05;0.05;;;21.80;59.00;;;;;;5002382;28;20586;-45
2022/09/22 04:07:52;;;;;;;0.10;0.10;;;21.80;59.20;;;;;;5003700;28;20435;-45
2022/09/22 04:10:18;;;;;;;0.20;0.20;;;21.80;59.10;;;;;;5001705;28;20042;-45
2022/09/22 04:12:44;;;;;;;0.10;0.10;;;21.80;59.10;;;;;;5018842;28;20026;-45
2022/09/22 04:15:10;;;;;;;0.20;0.20;;;21.80;59.20;;;;;;5001422;28;20030;-45
2022/09/22 04:17:38;;;;;;;0.10;0.10;;;21.80;59.10;;;;;;4999813;28;20042;-45
2022/09/22 04:20:04;;;;;;;0.10;0.10;;;21.80;59.00;;;;;;5005652;28;20480;-45
2022/09/22 04:22:30;;;;;;;0.10;0.10;;;21.80;59.20;;;;;;4999008;28;20073;-45
2022/09/22 04:24:56;;;;;;;0.10;0.10;;;21.80;59.10;;;;;;5004097;28;20065;-46
2022/09/22 04:27:22;;;;;;;0.10;0.10;;;21.80;59.10;;;;;;5002511;28;20042;-45
2022/09/22 04:29:48;;;;;;;1.48;0.10;;;21.80;59.20;;;;;;5006225;28;20064;-45
2022/09/22 04:32:14;;;;;;;0.60;0.20;;;21.80;59.00;;;;;;5008338;28;20407;-45
2022/09/22 04:34:39;;;;;;;0.17;0.17;;;21.80;59.00;;;;;;5003250;28;20038;-46
2022/09/22 04:37:05;;;;;;;0.10;0.10;;;21.80;59.10;;;;;;5003654;28;20061;-46
2022/09/22 04:39:30;;;;;;;0.10;0.10;;;21.80;59.00;;;;;;5003382;28;20038;-45
2022/09/22 04:41:56;;;;;;;0.00;0.00;;;21.80;59.70;;;;;;5006811;28;20463;-45
2022/09/22 04:44:22;;;;;;;0.20;0.20;;;21.80;59.00;;;;;;5000589;28;20038;-45
2022/09/22 04:46:49;;;;;;;0.45;0.10;;;21.80;59.00;;;;;;5021147;28;20061;-45
2022/09/22 04:49:15;;;;;;;0.05;0.05;;;21.80;58.90;;;;;;5002069;28;20122;-45
2022/09/22 04:51:40;;;;;;;0.10;0.10;;;21.80;59.00;;;;;;4998876;28;20061;-45
2022/09/22 04:54:06;;;;;;;0.10;0.10;;;21.80;58.90;;;;;;5000635;28;20140;-45
2022/09/22 04:56:31;;;;;;;0.10;0.10;;;21.80;59.00;;;;;;5004506;28;20045;-45
2022/09/22 04:58:57;;;;;;;0.20;0.13;;;21.80;59.00;;;;;;5005162;28;20030;-45
2022/09/22 05:01:26;;;;;;;0.20;0.20;;;21.80;58.90;;;;;;5000171;28;20031;-45
2022/09/22 05:03:52;;;;;;;0.15;0.10;;;21.80;59.00;;;;;;5001067;28;20065;-45
2022/09/22 05:06:17;;;;;;;0.30;0.10;;;21.80;59.40;;;;;;5003289;28;20126;-43
2022/09/22 05:08:43;;;;;;;0.10;0.10;;;21.70;58.90;;;;;;5003717;28;20076;-45
2022/09/22 05:11:08;;;;;;;0.10;0.03;;;21.70;59.30;;;;;;5006383;28;20065;-44
2022/09/22 05:13:35;;;;;;;0.47;0.10;;;21.80;59.90;;;;;;5001168;28;20042;-45
2022/09/22 05:16:01;;;;;;;0.10;0.10;;;21.70;60.70;;;;;;5005667;28;20492;-44
2022/09/22 05:18:26;;;;;;;0.30;0.10;;;21.70;60.30;;;;;;4997426;28;20044;-45
2022/09/22 05:20:52;;;;;;;0.25;0.20;;;21.80;59.90;;;;;;5003825;28;20056;-45
2022/09/22 05:23:17;;;;;;;0.50;0.22;;;21.80;60.30;;;;;;5002629;28;20041;-48
2022/09/22 05:25:43;;;;;;;0.57;0.30;;;21.80;60.20;;;;;;5005911;28;20049;-59
2022/09/22 05:28:09;;;;;;;0.60;0.30;;;21.80;60.30;;;;;;4998887;28;20049;-52
2022/09/22 05:30:35;;;;;;;3.00;0.43;;;21.80;60.50;;;;;;5002964;28;20050;-59
2022/09/22 05:33:01;;;;;;;0.32;0.28;;;21.80;60.30;;;;;;5003495;28;20522;-52
2022/09/22 05:35:26;;;;;;;1.92;0.40;;;21.80;61.30;;;;;;5005834;28;20411;-52
2022/09/22 05:37:52;;;;;;;1.98;0.40;;;21.80;60.40;;;;;;5001519;28;20053;-51
2022/09/22 05:40:25;;;;;;;5.37;0.43;;;21.80;60.90;;;;;;4915373;28;10001605;-52
2022/09/22 05:42:52;;;;;;;1.30;0.43;;;21.80;61.10;;;;;;4648204;28;10000491;-57
2022/09/22 05:45:18;;;;;;;1.25;0.30;;;21.80;60.70;;;;;;4996638;28;20812;-56
2022/09/22 05:47:43;;;;;;;1.02;0.30;;;21.80;60.60;;;;;;4993417;28;20060;-55
2022/09/22 05:50:10;;;;;;;0.70;0.50;;;21.80;60.70;;;;;;4645290;28;10000470;-50
2022/09/22 05:52:35;;;;;;;0.45;0.30;;;21.70;60.60;;;;;;4998210;28;20050;-61
2022/09/22 05:55:01;;;;;;;0.52;0.30;;;21.80;60.30;;;;;;4993825;28;20115;-53
2022/09/22 05:57:27;;;;;;;0.57;0.40;;;21.70;60.30;;;;;;4996821;28;20034;-54
2022/09/22 05:59:53;;;;;;;0.70;0.20;;;21.80;60.20;;;;;;5002372;28;20117;-49
2022/09/22 06:02:19;;;;;;;0.28;0.22;;;21.70;60.20;;;;;;5003942;28;20042;-51
2022/09/22 06:04:45;;;;;;;0.50;0.22;;;21.70;60.10;;;;;;5004019;28;20541;-52
2022/09/22 06:07:10;;;;;;;0.70;0.30;;;21.70;60.20;;;;;;4999156;28;20046;-55
2022/09/22 06:09:43;;;;;;;1.08;0.50;;;21.70;60.00;;;;;;4901235;28;10000873;-52
2022/09/22 06:12:09;;;;;;;0.30;0.30;;;21.70;60.30;;;;;;4994474;28;20279;-55
2022/09/22 06:14:34;;;;;;;0.40;0.30;;;21.70;60.00;;;;;;4990272;28;20113;-57
2022/09/22 06:17:00;;;;;;;0.88;0.30;;;21.70;60.00;;;;;;4987168;28;20428;-60
2022/09/22 06:19:27;;;;;;;3.25;0.50;;;21.70;59.90;;;;;;4996185;28;20128;-63
2022/09/22 06:21:53;;;;;;;1.70;0.40;;;21.70;60.00;;;;;;4998845;28;20053;-54
2022/09/22 06:24:18;;;;;;;0.77;0.30;;;21.70;60.00;;;;;;4999709;28;20041;-60
2022/09/22 06:26:44;;;;;;;2.05;0.30;;;21.70;60.00;;;;;;4996517;28;20038;-55
2022/09/22 06:29:10;;;;;;;0.63;0.40;;;21.70;59.90;;;;;;5001137;28;20107;-54
2022/09/22 06:31:36;;;;;;;0.82;0.28;;;21.70;59.90;;;;;;4997472;28;20437;-59
2022/09/22 06:34:01;;;;;;;0.85;0.40;;;21.70;59.90;;;;;;4997779;28;20042;-57
2022/09/22 06:36:30;;;;;;;0.30;0.30;;;21.70;60.00;;;;;;4994964;28;20088;-56
2022/09/22 06:38:57;;;;;;;0.30;0.30;;;21.60;60.10;;;;;;4991318;28;20104;-53
2022/09/22 06:41:26;;;;;;;0.47;0.40;;;21.60;60.00;;;;;;4995425;28;20051;-59
2022/09/22 06:43:54;;;;;;;0.82;0.30;;;21.60;59.90;;;;;;4994650;28;20065;-55
2022/09/22 06:46:23;;;;;;;0.68;0.20;;;21.70;59.90;;;;;;4994366;28;20536;-55
2022/09/22 06:48:49;;;;;;;0.52;0.40;;;21.60;59.80;;;;;;4991076;28;20049;-57
2022/09/22 06:51:16;;;;;;;0.88;0.20;;;21.60;59.80;;;;;;4994211;28;20189;-48
2022/09/22 06:53:43;;;;;;;0.45;0.30;;;21.70;59.80;;;;;;4992533;28;20566;-52
2022/09/22 06:56:08;;;;;;;0.45;0.28;;;21.70;59.80;;;;;;4997788;28;20069;-61
2022/09/22 06:58:34;;;;;;;0.75;0.30;;;21.70;59.80;;;;;;4998326;28;20515;-55
2022/09/22 07:01:04;;;;;;;0.10;0.10;;;21.70;59.70;;;;;;4997351;28;20515;-18
2022/09/22 07:03:32;;;;;;;1.70;0.30;;;21.60;59.60;;;;;;4994959;28;20046;-26
2022/09/22 07:05:59;;;;;;;0.52;0.25;;;21.70;59.50;;;;;;5004457;28;20050;-20
2022/09/22 07:08:27;;;;;;;0.57;0.40;;;21.70;59.50;;;;;;4998030;28;20050;-18
2022/09/22 07:11:06;;;;;;;0.45;0.25;;;21.70;59.50;;;;;;5001423;28;20045;-18
2022/09/22 07:13:31;;;;;;;0.30;0.20;;;21.70;59.50;;;;;;4997145;28;20112;-18
2022/09/22 07:16:01;;;;;;;1.10;0.30;;;21.70;59.50;;;;;;4999624;28;20482;-18
2022/09/22 07:18:27;;;;;;;0.22;0.20;;;21.70;59.40;;;;;;4996167;28;20031;-19
2022/09/22 07:21:00;;;;;;;0.77;0.40;;;21.70;59.40;;;;;;5001766;28;20645;-18
2022/09/22 07:23:27;;;;;;;1.38;0.40;;;21.70;59.70;;;;;;4999111;28;20496;-18
2022/09/22 07:25:59;;;;;;;0.30;0.30;;;21.70;59.40;;;;;;4987570;28;20042;-20
2022/09/22 07:28:27;;;;;;;1.48;0.20;;;21.70;59.50;;;;;;4994127;28;20072;-18
2022/09/22 07:30:56;;;;;;;0.30;0.28;;;21.70;59.60;;;;;;5004040;28;20052;-19
2022/09/22 07:33:25;;;;;;;0.55;0.30;;;21.70;59.30;;;;;;5001865;28;20492;-18
2022/09/22 07:36:07;;;;;;;0.52;0.30;;;21.80;59.30;;;;;;5000110;28;20295;-27
2022/09/22 07:38:36;;;;;;;0.32;0.20;;;21.80;59.10;;;;;;4998831;28;20415;-18
2022/09/22 07:41:03;;;;;;;1.95;0.40;;;21.80;59.20;;;;;;5004767;28;20092;-18
2022/09/22 07:43:29;;;;;;;0.57;0.38;;;21.80;59.10;;;;;;4995687;28;20046;-18
2022/09/22 07:45:58;;;;;;;0.65;0.40;;;21.80;59.10;;;;;;5004018;28;20042;-19
2022/09/22 07:48:36;;;;;;;1.17;0.50;;;21.80;59.70;;;;;;5000549;28;20042;-18
2022/09/22 07:51:22;;;;;;;1.65;0.28;;;21.70;58.90;;;;;;5002073;28;20045;-19
2022/09/22 07:54:06;;;;;;;2.15;0.20;;;21.70;59.00;;;;;;5001730;28;20499;-20
2022/09/22 07:56:32;;;;;;;0.57;0.50;;;21.70;59.10;;;;;;5001031;28;22608;-19
2022/09/22 07:58:57;;;;;;;0.40;0.40;;;21.70;59.30;;;;;;5006597;28;20050;-19
2022/09/22 08:01:25;;;;;;;0.20;0.20;;;21.60;59.30;;;;;;5006259;28;20072;-19
2022/09/22 08:03:51;;;;;;;0.35;0.20;;;21.70;59.30;;;;;;5001468;28;20054;-19
2022/09/22 08:06:18;;;;;;;0.45;0.45;;;21.60;59.20;;;;;;5009192;28;20048;-19
2022/09/22 08:08:52;;;;;;;2.03;0.20;;;21.60;59.20;;;;;;5001433;28;20061;-19
2022/09/22 08:11:19;;;;;;;0.22;0.20;;;21.70;59.20;;;;;;5006660;28;20100;-20
2022/09/22 08:13:52;;;;;;;0.40;0.40;;;21.70;59.10;;;;;;5005101;28;20045;-20
2022/09/22 08:16:19;;;;;;;0.50;0.40;;;21.70;59.10;;;;;;5007475;28;20501;-20
2022/09/22 08:18:49;;;;;;;0.60;0.25;;;21.60;59.10;;;;;;5001174;28;20077;-19
2022/09/22 08:21:18;;;;;;;1.67;0.40;;;21.60;59.10;;;;;;5005693;28;20046;-19
2022/09/22 08:23:44;;;;;;;0.45;0.40;;;21.60;59.20;;;;;;5004808;28;20056;-19
2022/09/22 08:26:09;;;;;;;0.20;0.20;;;21.60;59.10;;;;;;5009093;28;20046;-19
2022/09/22 08:28:35;;;;;;;1.55;0.50;;;21.70;59.20;;;;;;5004544;28;20100;-20
2022/09/22 08:31:01;;;;;;;0.50;0.20;;;21.60;59.10;;;;;;5006957;28;20045;-25
2022/09/22 08:33:28;;;;;;;0.30;0.30;;;21.70;59.00;;;;;;5001600;28;20061;-19
2022/09/22 08:35:57;;;;;;;0.40;0.20;;;21.70;58.70;;;;;;5005097;28;20108;-20
2022/09/22 08:38:24;;;;;;;0.30;0.30;;;21.70;58.60;;;;;;5006746;28;20137;-19
2022/09/22 08:40:58;;;;;;;0.57;0.30;;;21.70;58.40;;;;;;4998489;28;20050;-21
2022/09/22 08:43:25;;;;;;;0.40;0.40;;;21.80;58.30;;;;;;5001850;28;20099;-21
2022/09/22 08:45:50;;;;;;;0.40;0.40;;;21.80;58.90;;;;;;4996069;28;20053;-20
2022/09/22 08:54:07;;;;;;;0.90;0.40;;;21.80;58.00;;;;;;5000933;28;20529;-19
2022/09/22 08:56:43;;;;;;;0.45;0.30;;;21.80;58.40;;;;;;5005843;28;20075;-19
2022/09/22 08:59:23;;;;;;;0.30;0.30;;;21.80;58.50;;;;;;5021966;28;20046;-20
2022/09/22 09:02:06;;;;;;;0.35;0.35;;;21.90;58.30;;;;;;5020454;28;20426;-20
2022/09/22 09:04:58;;;;;;;0.40;0.33;;;21.90;58.30;;;;;;4996057;28;20203;-20
2022/09/22 09:07:42;;;;;;;0.30;0.30;;;21.90;58.30;;;;;;5028957;28;20407;-20
2022/09/22 09:10:33;;;;;;;0.20;0.20;;;21.90;58.20;;;;;;5002896;28;20112;-20
2022/09/22 09:13:23;;;;;;;0.22;0.20;;;21.90;58.20;;;;;;5002869;28;20038;-23
2022/09/22 09:16:13;;;;;;;0.10;0.10;;;21.90;58.20;;;;;;5004994;28;20523;-19
2022/09/22 09:18:42;;;;;;;0.28;0.20;;;21.90;58.20;;;;;;5001347;28;20046;-20
2022/09/22 09:21:12;;;;;;;0.20;0.20;;;21.90;58.00;;;;;;5019930;28;20455;-19
2022/09/22 09:23:45;;;;;;;0.30;0.30;;;21.90;58.10;;;;;;5017566;28;20042;-19
2022/09/22 09:26:11;;;;;;;0.25;0.25;;;22.00;58.00;;;;;;4992186;28;20068;-19
2022/09/22 09:28:41;;;;;;;0.38;0.20;;;22.00;58.00;;;;;;5003394;28;20046;-20
2022/09/22 09:31:17;;;;;;;0.40;0.30;;;22.00;57.90;;;;;;5006171;28;20046;-20
2022/09/22 09:34:06;;;;;;;0.30;0.30;;;22.00;58.00;;;;;;4998597;28;20041;-20
2022/09/22 09:36:36;;;;;;;0.30;0.30;;;22.00;58.00;;;;;;5023095;28;20045;-20
2022/09/22 09:39:13;;;;;;;0.22;0.20;;;22.00;57.90;;;;;;5016666;28;20038;-20
2022/09/22 09:41:39;;;;;;;1.83;0.30;;;22.00;57.90;;;;;;5001272;28;20069;-20
2022/09/22 09:44:04;;;;;;;0.30;0.30;;;22.00;57.80;;;;;;5005103;28;20045;-19
2022/09/22 09:46:42;;;;;;;0.32;0.20;;;22.00;57.80;;;;;;5005316;28;20042;-23
2022/09/22 09:49:26;;;;;;;0.50;0.30;;;22.00;57.80;;;;;;4992848;28;20502;-19
2022/09/22 09:51:57;;;;;;;0.20;0.20;;;22.00;57.80;;;;;;5019085;28;20042;-19
2022/09/22 09:54:23;;;;;;;1.40;0.15;;;22.00;57.80;;;;;;5017755;28;20076;-20
2022/09/22 09:57:08;;;;;;;0.40;0.22;;;22.10;57.70;;;;;;5003136;28;20066;-19
2022/09/22 10:02:49;;;;;;;0.30;0.30;;;22.10;57.80;;;;;;5005723;28;20073;-21
2022/09/22 10:05:14;;;;;;;0.10;0.10;;;22.10;57.60;;;;;;5006080;28;20077;-20
2022/09/22 10:07:41;;;;;;;0.30;0.30;;;22.10;57.70;;;;;;5002656;28;20085;-20
2022/09/22 10:10:28;;;;;;;0.22;0.15;;;22.10;57.70;;;;;;4999454;28;20042;-19
2022/09/22 10:13:17;;;;;;;0.35;0.30;;;22.20;57.70;;;;;;4997248;28;20045;-20
2022/09/22 10:15:42;;;;;;;0.63;0.40;;;22.20;57.70;;;;;;5027641;28;20034;-19
2022/09/22 10:18:23;;;;;;;0.40;0.40;;;22.20;57.70;;;;;;5016273;28;20411;-19
2022/09/22 10:21:01;;;;;;;0.85;0.20;;;22.20;57.70;;;;;;4999847;28;20507;-19
2022/09/22 10:23:26;;;;;;;0.50;0.30;;;22.20;57.70;;;;;;5001255;28;20042;-19
2022/09/22 10:25:52;;;;;;;0.40;0.30;;;22.20;57.70;;;;;;5021473;28;20042;-19
2022/09/22 10:28:19;;;;;;;0.38;0.38;;;22.20;57.70;;;;;;4984711;28;20415;-19
2022/09/22 10:30:57;;;;;;;0.45;0.30;;;22.30;57.70;;;;;;4998431;28;20050;-19
2022/09/22 10:33:23;;;;;;;1.00;0.60;;;22.30;57.70;;;;;;5000924;28;20181;-19
2022/09/22 10:36:10;;;;;;;0.52;0.50;;;22.30;57.70;;;;;;4998869;28;20125;-19
2022/09/22 10:38:42;;;;;;;0.40;0.40;;;22.30;57.80;;;;;;4650590;28;9999986;-20
2022/09/22 10:41:18;;;;;;;0.45;0.30;;;22.30;57.90;;;;;;4991714;28;20057;-19
2022/09/22 10:43:52;;;;;;;0.55;0.40;;;22.30;57.90;;;;;;4998544;28;20527;-19
2022/09/22 10:46:56;;;;;;;1.02;0.30;;;22.30;57.90;;;;;;4980527;28;20042;-19
2022/09/22 10:49:40;;;;;;;0.70;0.57;;;22.30;57.90;;;;;;4995152;28;20111;-20
2022/09/22 10:52:08;;;;;;;1.03;0.40;;;22.30;58.00;;;;;;4997181;28;20134;-19
2022/09/22 10:54:50;;;;;;;0.47;0.20;;;22.30;58.00;;;;;;5011701;28;20315;-19
2022/09/22 10:57:28;;;;;;;0.82;0.40;;;22.40;58.10;;;;;;5022654;28;20053;-19
2022/09/22 11:00:14;;;;;;;1.50;0.25;;;22.40;58.10;;;;;;4996625;28;20037;-21
2022/09/22 11:03:12;;;;;;;0.75;0.38;;;22.40;58.10;;;;;;4987567;28;20365;-20
2022/09/22 11:12:15;;;;;;;0.75;0.30;;;22.40;58.00;;;;;;4989184;28;20102;-19
2022/09/22 11:14:52;;;;;;;0.40;0.38;;;22.40;58.00;;;;;;4992410;28;21355;-20
2022/09/22 11:17:18;;;;;;;0.30;0.30;;;22.50;58.00;;;;;;4992746;28;20033;-20
2022/09/22 11:20:08;;;;;;;0.75;0.50;;;22.40;57.90;;;;;;4992428;28;20092;-20
2022/09/22 11:22:42;;;;;;;0.55;0.40;;;22.50;57.90;;;;;;4998235;28;22373;-29
2022/09/22 11:25:21;;;;;;;0.40;0.40;;;22.50;57.90;;;;;;4997602;28;20155;-20
2022/09/22 11:27:55;;;;;;;0.40;0.30;;;22.50;57.90;;;;;;4993848;28;20064;-20
2022/09/22 11:30:21;;;;;;;;;;;22.50;57.90;;;;;;5023386;28;20042;-19
2022/09/22 11:33:12;;;;;;;0.30;0.30;;;22.50;57.80;;;;;;5026498;28;21735;-20
2022/09/22 11:35:48;;;;;;;0.17;0.17;;;22.50;57.80;;;;;;4997274;28;20571;-19
2022/09/22 11:38:27;;;;;;;1.60;0.28;;;22.50;57.90;;;;;;4675314;28;9999794;-20
2022/09/22 11:41:26;;;;;;;0.63;0.30;;;22.60;57.80;;;;;;5004221;28;20030;-19
2022/09/22 11:44:19;;;;;;;1.20;0.22;;;22.60;57.80;;;;;;4998989;28;20480;-24
2022/09/22 11:47:09;;;;;;;0.25;0.25;;;22.60;57.80;;;;;;5002949;28;20161;-20
2022/09/22 11:50:09;;;;;;;0.30;0.20;;;22.60;57.80;;;;;;5000159;28;20077;-20
2022/09/22 11:53:05;;;;;;;0.20;0.20;;;22.60;58.00;;;;;;5001225;28;20149;-20
2022/09/22 11:55:42;;;;;;;0.32;0.32;;;22.60;58.10;;;;;;5001671;28;20096;-20
2022/09/22 11:58:22;;;;;;;0.57;0.38;;;22.60;58.10;;;;;;5006079;28;20046;-21
2022/09/22 12:01:10;;;;;;;0.30;0.20;;;22.70;58.00;;;;;;5018831;28;20120;-19
2022/09/22 12:03:44;;;;;;;0.70;0.30;;;22.60;58.00;;;;;;5013241;28;20065;-23
2022/09/22 12:06:11;;;;;;;0.43;0.40;;;22.70;58.00;;;;;;5019534;28;20061;-22
2022/09/22 12:08:52;;;;;;;0.40;0.40;;;22.60;58.00;;;;;;5020501;28;20049;-20
2022/09/22 12:11:19;;;;;;;0.28;0.25;;;22.70;58.00;;;;;;5007786;28;20046;-20
2022/09/22 12:13:46;;;;;;;0.20;0.20;;;22.60;58.60;;;;;;5007098;28;20038;-19
2022/09/22 12:16:40;;;;;;;0.30;0.30;;;22.70;58.00;;;;;;5032352;28;20523;-19
2022/09/22 12:19:20;;;;;;;0.45;0.20;;;22.70;57.90;;;;;;5004404;28;20099;-19
2022/09/22 12:21:56;;;;;;;0.20;0.20;;;22.70;57.90;;;;;;5004623;28;20045;-19
2022/09/22 12:24:22;;;;;;;0.55;0.30;;;22.70;57.90;;;;;;5032542;28;20438;-19
2022/09/22 12:26:48;;;;;;;0.75;0.30;;;22.70;57.90;;;;;;5034830;28;20042;-20
2022/09/22 12:29:14;;;;;;;0.38;0.28;;;22.70;57.90;;;;;;5023349;28;20419;-19
2022/09/22 12:31:43;;;;;;;0.20;0.20;;;22.70;57.80;;;;;;5007104;28;20149;-19
2022/09/22 12:34:20;;;;;;;0.20;0.20;;;22.70;57.70;;;;;;5020690;28;20042;-19
2022/09/22 12:36:46;;;;;;;0.45;0.30;;;22.70;57.70;;;;;;5006242;28;20728;-19
2022/09/22 12:39:23;;;;;;;0.13;0.10;;;22.80;57.80;;;;;;5018858;28;20153;-21
2022/09/22 12:41:51;;;;;;;0.25;0.25;;;22.70;57.70;;;;;;5006080;28;20138;-19
2022/09/22 12:44:43;;;;;;;0.63;0.22;;;22.80;57.70;;;;;;5006338;28;20042;-19
2022/09/22 12:47:27;;;;;;;0.40;0.30;;;22.70;57.70;;;;;;5004632;28;20057;-19
2022/09/22 12:49:55;;;;;;;0.20;0.20;;;22.80;57.70;;;;;;5004115;28;20473;-19
2022/09/22 12:52:39;;;;;;;0.20;0.20;;;22.80;57.70;;;;;;5004041;28;20045;-19
2022/09/22 12:55:27;;;;;;;0.30;0.25;;;22.80;57.60;;;;;;5001720;28;20132;-19
2022/09/22 12:57:53;;;;;;;0.30;0.30;;;22.80;57.60;;;;;;5002029;28;20057;-23
2022/09/22 13:00:34;;;;;;;0.20;0.20;;;22.80;57.70;;;;;;5021987;28;20073;-43
2022/09/22 13:03:00;;;;;;;0.60;0.40;;;22.80;57.70;;;;;;5029376;28;20038;-39
2022/09/22 13:05:26;;;;;;;0.95;0.20;;;22.80;58.20;;;;;;5022020;28;20873;-39
2022/09/22 13:07:52;;;;;;;0.20;0.20;;;22.80;57.50;;;;;;5006745;28;20045;-41
2022/09/22 13:10:24;;;;;;;0.17;0.17;;;22.80;57.60;;;;;;5004852;28;20450;-39
2022/09/22 13:13:02;;;;;;;0.25;0.20;;;22.80;57.60;;;;;;5002522;28;20523;-41
2022/09/22 13:15:36;;;;;;;0.10;0.10;;;22.80;57.60;;;;;;5006434;28;20611;-39
2022/09/22 13:18:02;;;;;;;0.22;0.13;;;22.80;57.60;;;;;;5004316;28;20049;-40
2022/09/22 13:20:32;;;;;;;0.17;0.17;;;22.80;57.60;;;;;;5007118;28;21022;-39
2022/09/22 13:23:13;;;;;;;0.20;0.20;;;22.80;57.60;;;;;;5006171;28;20054;-39